Time;durP1;ratioP1;P1;durP2;ratioP2;P2;SDS_P1;SDS_P2;PMS_P1;PMS_P2;Temp;Humidity;BMP_temperature;BMP_pressure;BME280_temperature;BME280_humidity;BME280_pressure;Samples;Min_cycle;Max_cycle;Signal;HPM_P1;HPM_P2
2022/06/29 00:02:10;;;;;;;10.82;8.98;;;15.50;99.90;;;;;;5088236;28;20070;-66
2022/06/29 00:04:35;;;;;;;12.63;8.10;;;15.50;99.90;;;;;;5090575;28;20048;-66
2022/06/29 00:07:01;;;;;;;9.00;7.93;;;15.50;99.90;;;;;;5075599;28;20071;-66
2022/06/29 00:09:27;;;;;;;9.65;8.57;;;15.50;99.90;;;;;;5090205;28;20044;-66
2022/06/29 00:11:52;;;;;;;8.93;8.15;;;15.40;99.90;;;;;;5076606;28;20048;-66
2022/06/29 00:14:18;;;;;;;10.35;9.38;;;15.30;99.90;;;;;;5083851;28;20036;-66
2022/06/29 00:16:44;;;;;;;11.40;9.38;;;15.30;99.90;;;;;;5082169;28;20444;-66
2022/06/29 00:19:09;;;;;;;11.60;9.13;;;15.30;99.90;;;;;;5088987;28;20040;-66
2022/06/29 00:21:35;;;;;;;16.08;11.48;;;15.30;99.90;;;;;;5090693;28;20076;-66
2022/06/29 00:24:01;;;;;;;11.95;10.85;;;15.20;99.90;;;;;;5089450;28;20050;-66
2022/06/29 00:26:27;;;;;;;14.07;12.57;;;15.20;99.90;;;;;;5090077;28;20036;-66
2022/06/29 00:28:53;;;;;;;15.02;12.32;;;15.30;99.90;;;;;;5080403;28;20550;-66
2022/06/29 00:31:19;;;;;;;18.88;11.18;;;15.20;99.90;;;;;;5086297;28;20040;-66
2022/06/29 00:33:44;;;;;;;12.55;10.75;;;15.20;99.90;;;;;;5089903;28;20040;-65
2022/06/29 00:36:11;;;;;;;15.20;13.32;;;15.20;99.90;;;;;;5089517;28;20050;-66
2022/06/29 00:38:37;;;;;;;14.75;13.00;;;15.20;99.90;;;;;;5089357;28;20158;-66
2022/06/29 00:41:03;;;;;;;20.45;13.50;;;15.20;99.90;;;;;;5090444;28;20166;-66
2022/06/29 00:43:28;;;;;;;16.35;11.88;;;15.20;99.90;;;;;;5081931;28;20051;-66
2022/06/29 00:45:54;;;;;;;11.40;10.30;;;15.20;99.90;;;;;;5088485;28;20035;-66
2022/06/29 00:48:20;;;;;;;10.40;9.27;;;15.20;99.90;;;;;;5090374;28;20125;-66
2022/06/29 00:50:46;;;;;;;17.50;10.85;;;15.20;99.90;;;;;;5089035;28;20449;-66
2022/06/29 00:53:16;;;;;;;10.20;8.88;;;15.20;99.90;;;;;;5090052;28;20051;-66
2022/06/29 00:55:44;;;;;;;14.55;9.45;;;15.10;99.90;;;;;;5089306;28;20048;-66
2022/06/29 00:58:11;;;;;;;11.55;10.35;;;15.00;99.90;;;;;;5083308;28;20040;-66
2022/06/29 01:00:37;;;;;;;12.77;9.27;;;15.00;99.90;;;;;;5070391;28;20040;-66
2022/06/29 01:03:03;;;;;;;10.68;8.95;;;15.00;99.90;;;;;;5089039;28;20050;-66
2022/06/29 01:05:31;;;;;;;9.50;8.30;;;15.00;99.90;;;;;;5076824;28;20437;-66
2022/06/29 01:07:57;;;;;;;9.57;8.77;;;15.00;99.90;;;;;;5087588;28;20139;-66
2022/06/29 01:10:23;;;;;;;9.02;8.10;;;14.90;99.90;;;;;;5088683;28;20435;-66
2022/06/29 01:12:51;;;;;;;11.23;8.68;;;14.90;99.90;;;;;;5084790;28;20063;-66
2022/06/29 01:15:17;;;;;;;11.70;10.00;;;14.90;99.90;;;;;;5088423;28;20127;-66
2022/06/29 01:17:43;;;;;;;13.50;9.77;;;14.90;99.90;;;;;;5086992;28;20044;-67
2022/06/29 01:20:10;;;;;;;13.23;10.32;;;14.80;99.90;;;;;;5089312;28;20028;-66
2022/06/29 01:22:36;;;;;;;14.55;10.55;;;14.80;99.90;;;;;;5087619;28;20115;-66
2022/06/29 01:25:03;;;;;;;17.25;11.55;;;14.80;99.90;;;;;;5088373;28;20052;-66
2022/06/29 01:27:29;;;;;;;13.85;10.75;;;14.80;99.90;;;;;;5088570;28;20048;-67
2022/06/29 01:29:55;;;;;;;10.98;10.07;;;14.70;99.90;;;;;;5088543;28;20600;-66
2022/06/29 01:32:21;;;;;;;13.27;11.85;;;14.70;99.90;;;;;;5088574;28;20038;-66
2022/06/29 01:34:47;;;;;;;11.93;10.80;;;14.70;99.90;;;;;;5088733;28;20115;-66
2022/06/29 01:37:13;;;;;;;12.18;11.07;;;14.70;99.90;;;;;;5088570;28;20115;-66
2022/06/29 01:39:39;;;;;;;13.93;11.27;;;14.60;99.90;;;;;;5088433;28;20492;-66
2022/06/29 01:42:06;;;;;;;13.32;12.02;;;14.60;99.90;;;;;;5087468;28;20408;-66
2022/06/29 01:44:33;;;;;;;14.20;12.80;;;14.60;99.90;;;;;;5088607;28;20036;-66
2022/06/29 01:46:59;;;;;;;18.33;12.03;;;14.60;99.90;;;;;;5088818;28;20044;-65
2022/06/29 01:49:25;;;;;;;14.32;13.00;;;14.50;99.90;;;;;;5075932;28;20047;-66
2022/06/29 01:51:51;;;;;;;17.17;15.48;;;14.50;99.90;;;;;;5086458;28;20035;-66
2022/06/29 01:54:17;;;;;;;22.63;16.77;;;14.40;99.90;;;;;;5088245;28;20036;-66
2022/06/29 01:56:42;;;;;;;19.08;12.82;;;14.40;99.90;;;;;;5087614;28;20612;-66
2022/06/29 01:59:08;;;;;;;14.43;11.88;;;14.40;99.90;;;;;;5087014;28;20039;-66
2022/06/29 02:01:34;;;;;;;15.68;13.45;;;14.40;99.90;;;;;;5087846;28;20078;-66
2022/06/29 02:04:00;;;;;;;16.48;11.77;;;14.40;99.90;;;;;;5087548;28;20064;-66
2022/06/29 02:06:26;;;;;;;14.30;12.80;;;14.40;99.90;;;;;;5087886;28;20052;-66
2022/06/29 02:08:52;;;;;;;17.75;14.65;;;14.30;99.90;;;;;;5087044;28;20725;-66
2022/06/29 02:11:18;;;;;;;14.82;13.35;;;14.30;99.90;;;;;;5087403;28;20040;-66
2022/06/29 02:13:43;;;;;;;15.23;13.93;;;14.30;99.90;;;;;;5076229;28;20051;-66
2022/06/29 02:16:10;;;;;;;15.85;14.43;;;14.30;99.90;;;;;;5087984;28;20056;-66
2022/06/29 02:18:36;;;;;;;16.13;14.45;;;14.30;99.90;;;;;;5086806;28;20493;-66
2022/06/29 02:21:01;;;;;;;18.70;14.90;;;14.30;99.90;;;;;;5086727;28;20050;-66
2022/06/29 02:23:27;;;;;;;14.70;13.32;;;14.20;99.90;;;;;;5086771;28;20044;-66
2022/06/29 02:25:53;;;;;;;17.15;15.10;;;14.20;99.90;;;;;;5086957;28;20043;-66
2022/06/29 02:28:18;;;;;;;21.02;17.63;;;14.20;99.90;;;;;;5083203;28;20038;-66
2022/06/29 02:36:14;;;;;;;18.38;16.55;;;14.10;99.90;;;;;;5087486;28;20052;-66
2022/06/29 02:38:40;;;;;;;18.08;16.00;;;14.10;99.90;;;;;;5087154;28;20366;-66
2022/06/29 02:41:05;;;;;;;18.02;15.73;;;14.10;99.90;;;;;;5087656;28;20097;-66
2022/06/29 02:43:31;;;;;;;16.42;14.75;;;14.10;99.90;;;;;;5087589;28;20047;-66
2022/06/29 02:45:57;;;;;;;17.58;15.98;;;14.10;99.90;;;;;;5087308;28;20172;-66
2022/06/29 02:48:23;;;;;;;16.73;15.32;;;14.10;99.90;;;;;;5087161;28;20424;-66
2022/06/29 02:50:48;;;;;;;23.70;17.23;;;14.00;99.90;;;;;;5079624;28;20127;-66
2022/06/29 02:53:14;;;;;;;19.75;16.23;;;14.00;99.90;;;;;;5086966;28;20114;-66
2022/06/29 02:55:41;;;;;;;17.90;16.10;;;14.00;99.90;;;;;;5087811;28;20131;-66
2022/06/29 02:58:06;;;;;;;19.42;16.80;;;14.00;99.90;;;;;;5087016;28;20071;-66
2022/06/29 03:00:32;;;;;;;20.00;17.80;;;13.90;99.90;;;;;;5086219;28;20087;-66
2022/06/29 03:02:57;;;;;;;18.95;16.73;;;13.90;99.90;;;;;;5086963;28;20051;-66
2022/06/29 03:05:23;;;;;;;19.65;17.65;;;13.90;99.90;;;;;;5087531;28;20036;-66
2022/06/29 03:07:49;;;;;;;19.67;17.70;;;13.90;99.90;;;;;;5085613;28;20159;-66
2022/06/29 03:10:14;;;;;;;19.83;17.88;;;13.90;99.90;;;;;;5068655;28;20052;-66
2022/06/29 03:12:40;;;;;;;17.63;15.93;;;13.80;99.90;;;;;;5083782;28;20457;-66
2022/06/29 03:15:07;;;;;;;23.88;18.30;;;13.80;99.90;;;;;;5082828;28;20044;-66
2022/06/29 03:17:33;;;;;;;19.63;17.83;;;13.80;99.90;;;;;;5087059;28;20059;-66
2022/06/29 03:19:58;;;;;;;19.83;17.80;;;13.70;99.90;;;;;;5086697;28;20036;-66
2022/06/29 03:22:25;;;;;;;17.77;16.13;;;13.80;99.90;;;;;;5068217;28;20044;-66
2022/06/29 03:24:50;;;;;;;19.90;17.52;;;13.80;99.90;;;;;;5075683;28;20044;-66
2022/06/29 03:27:16;;;;;;;19.15;17.13;;;13.80;99.90;;;;;;5062562;28;20052;-66
2022/06/29 03:29:42;;;;;;;21.42;16.70;;;13.70;99.90;;;;;;5085643;28;20040;-66
2022/06/29 03:32:08;;;;;;;18.77;16.83;;;13.80;99.90;;;;;;5091138;28;20496;-66
2022/06/29 03:34:33;;;;;;;19.05;17.15;;;13.80;99.90;;;;;;5072961;28;20102;-66
2022/06/29 03:36:59;;;;;;;20.60;18.60;;;13.70;99.90;;;;;;5090496;28;20508;-66
2022/06/29 03:39:25;;;;;;;20.75;18.63;;;13.70;99.90;;;;;;5090286;28;20493;-66
2022/06/29 03:41:50;;;;;;;24.05;21.52;;;13.70;99.90;;;;;;5090835;28;20047;-66
2022/06/29 03:44:16;;;;;;;22.73;20.35;;;13.70;99.90;;;;;;5090921;28;20036;-66
2022/06/29 03:46:45;;;;;;;28.95;24.58;;;13.70;99.90;;;;;;5085798;28;20105;-66
2022/06/29 03:49:10;;;;;;;23.45;20.98;;;13.70;99.90;;;;;;5089689;28;20044;-66
2022/06/29 03:51:36;;;;;;;33.90;27.30;;;13.70;99.90;;;;;;5089608;28;20039;-67
2022/06/29 03:54:02;;;;;;;36.05;25.92;;;13.70;99.90;;;;;;5090229;28;20043;-67
2022/06/29 03:56:28;;;;;;;32.15;26.88;;;13.60;99.90;;;;;;5078217;28;20036;-67
2022/06/29 03:58:54;;;;;;;28.73;24.77;;;13.60;99.90;;;;;;5079797;28;20043;-67
2022/06/29 04:01:19;;;;;;;29.98;25.13;;;13.60;99.90;;;;;;5089617;28;20067;-67
2022/06/29 04:03:45;;;;;;;28.70;25.83;;;13.60;99.90;;;;;;5090519;28;20051;-67
2022/06/29 04:06:11;;;;;;;27.67;25.02;;;13.60;99.90;;;;;;5082707;28;20064;-67
2022/06/29 04:08:37;;;;;;;31.50;28.35;;;13.50;99.90;;;;;;5071569;28;20040;-67
2022/06/29 04:11:03;;;;;;;34.40;26.48;;;13.50;99.90;;;;;;5089514;28;20063;-67
2022/06/29 04:13:29;;;;;;;36.10;29.13;;;13.50;99.90;;;;;;5087224;28;20386;-67
2022/06/29 04:15:55;;;;;;;32.85;26.77;;;13.60;99.90;;;;;;5086615;28;20051;-67
2022/06/29 04:18:20;;;;;;;33.30;27.25;;;13.60;99.90;;;;;;5090173;28;20095;-67
2022/06/29 04:23:30;;;;;;;27.30;24.52;;;13.50;99.90;;;;;;5086252;28;20415;-68
2022/06/29 04:25:56;;;;;;;30.48;26.60;;;13.50;99.90;;;;;;5089312;28;20043;-67
2022/06/29 04:28:22;;;;;;;29.42;26.35;;;13.60;99.90;;;;;;5088650;28;20040;-67
2022/06/29 04:30:47;;;;;;;31.83;28.42;;;13.50;99.90;;;;;;5081224;28;20386;-67
2022/06/29 04:33:13;;;;;;;28.77;26.00;;;13.60;99.90;;;;;;5087939;28;20111;-67
2022/06/29 04:35:39;;;;;;;29.75;26.75;;;13.50;99.90;;;;;;5089618;28;20037;-67
2022/06/29 04:38:04;;;;;;;35.15;28.27;;;13.50;99.90;;;;;;5089317;28;20044;-67
2022/06/29 04:40:30;;;;;;;31.10;27.83;;;13.50;99.90;;;;;;5089666;28;20047;-67
2022/06/29 04:42:56;;;;;;;30.33;27.17;;;13.60;99.90;;;;;;5085371;28;20033;-67
2022/06/29 04:48:05;;;;;;;30.10;27.10;;;13.70;99.90;;;;;;5089847;28;20090;-67
2022/06/29 04:50:31;;;;;;;32.58;28.15;;;13.70;99.90;;;;;;5088975;28;20055;-67
2022/06/29 04:52:57;;;;;;;31.25;27.98;;;13.70;99.90;;;;;;5089314;28;20614;-67
2022/06/29 04:55:25;;;;;;;31.13;27.77;;;13.80;99.90;;;;;;5089258;28;20048;-67
2022/06/29 04:57:51;;;;;;;33.78;28.60;;;13.80;99.90;;;;;;5070021;28;20044;-67
2022/06/29 05:00:17;;;;;;;31.63;27.42;;;13.80;99.90;;;;;;5082259;28;20098;-67
2022/06/29 05:02:43;;;;;;;29.70;26.73;;;13.80;99.90;;;;;;5089710;28;20040;-67
2022/06/29 05:05:08;;;;;;;29.75;26.48;;;13.90;99.90;;;;;;5068087;28;20063;-67
2022/06/29 05:07:34;;;;;;;28.50;25.42;;;13.90;99.90;;;;;;5087018;28;20052;-67
2022/06/29 05:10:00;;;;;;;27.88;23.48;;;13.90;99.90;;;;;;5082764;28;20036;-67
2022/06/29 05:12:25;;;;;;;28.73;25.33;;;14.00;99.90;;;;;;5088608;28;20036;-67
2022/06/29 05:14:51;;;;;;;33.50;27.35;;;14.00;99.90;;;;;;5083582;28;20131;-67
2022/06/29 05:17:17;;;;;;;27.40;24.90;;;14.10;99.90;;;;;;5087054;28;20119;-67
2022/06/29 05:19:43;;;;;;;31.15;27.05;;;14.20;99.90;;;;;;5081272;28;20040;-67
2022/06/29 05:22:09;;;;;;;29.48;26.67;;;14.20;99.90;;;;;;5087855;28;20048;-67
2022/06/29 05:24:34;;;;;;;31.00;27.80;;;14.30;99.90;;;;;;5085195;28;20054;-67
2022/06/29 05:27:00;;;;;;;33.55;29.77;;;14.40;99.90;;;;;;5081591;28;20051;-67
2022/06/29 05:29:26;;;;;;;29.25;25.63;;;14.50;99.90;;;;;;5086706;28;20039;-67
2022/06/29 05:31:53;;;;;;;33.15;28.70;;;14.50;99.90;;;;;;5087108;28;20331;-67
2022/06/29 05:34:18;;;;;;;32.33;29.08;;;14.60;99.90;;;;;;5083341;28;20054;-67
2022/06/29 05:36:44;;;;;;;34.70;28.77;;;14.60;99.90;;;;;;5082677;28;20040;-68
2022/06/29 05:39:10;;;;;;;32.58;29.25;;;14.70;99.90;;;;;;5088689;28;20043;-67
2022/06/29 05:41:36;;;;;;;31.63;28.52;;;14.80;99.90;;;;;;5088328;28;20088;-67
2022/06/29 05:44:04;;;;;;;30.35;27.23;;;14.80;99.90;;;;;;5079546;28;20172;-67
2022/06/29 05:46:30;;;;;;;33.55;29.58;;;15.00;99.90;;;;;;5079536;28;20105;-68
2022/06/29 05:48:56;;;;;;;31.60;28.63;;;15.20;99.90;;;;;;5061908;28;20048;-68
2022/06/29 05:51:22;;;;;;;33.65;28.48;;;15.30;99.90;;;;;;5066877;28;20530;-67
2022/06/29 05:53:49;;;;;;;31.25;26.75;;;15.60;99.90;;;;;;5086362;28;20040;-68
2022/06/29 05:56:16;;;;;;;29.55;26.83;;;15.80;99.90;;;;;;5080940;28;20492;-67
2022/06/29 05:58:42;;;;;;;31.42;27.90;;;16.00;99.90;;;;;;5079245;28;20047;-69
2022/06/29 06:01:09;;;;;;;28.58;25.42;;;16.20;99.90;;;;;;5084509;28;20052;-68
2022/06/29 06:03:35;;;;;;;28.30;25.55;;;16.40;99.90;;;;;;5082477;28;20051;-68
2022/06/29 06:06:01;;;;;;;28.05;25.15;;;16.60;99.90;;;;;;5060325;28;20736;-69
2022/06/29 06:08:27;;;;;;;27.23;24.33;;;16.70;99.90;;;;;;5085681;28;20060;-68
2022/06/29 06:10:52;;;;;;;28.08;23.85;;;16.90;99.90;;;;;;5084418;28;20097;-68
2022/06/29 06:13:18;;;;;;;27.02;24.13;;;17.10;99.90;;;;;;5084450;28;20722;-68
2022/06/29 06:15:44;;;;;;;24.00;21.80;;;17.20;99.90;;;;;;5066016;28;20050;-68
2022/06/29 06:18:10;;;;;;;25.83;23.33;;;17.40;99.90;;;;;;5081113;28;20051;-68
2022/06/29 06:20:36;;;;;;;27.67;22.00;;;17.50;99.90;;;;;;5087081;28;20063;-68
2022/06/29 06:23:02;;;;;;;22.25;20.15;;;17.70;99.90;;;;;;5087651;28;20771;-68
2022/06/29 06:25:27;;;;;;;22.92;20.55;;;17.80;99.90;;;;;;5084261;28;20043;-69
2022/06/29 06:27:53;;;;;;;21.23;19.23;;;17.90;99.90;;;;;;5082162;28;20465;-68
2022/06/29 06:30:19;;;;;;;21.50;19.40;;;18.00;99.90;;;;;;5088207;28;20047;-68
2022/06/29 06:32:44;;;;;;;21.08;19.27;;;18.20;99.90;;;;;;5087297;28;20035;-69
2022/06/29 06:35:10;;;;;;;20.80;18.63;;;18.40;99.90;;;;;;5077581;28;20044;-68
2022/06/29 06:37:36;;;;;;;19.15;17.23;;;18.50;99.90;;;;;;5087847;28;20048;-69
2022/06/29 06:42:46;;;;;;;22.05;15.38;;;18.90;99.90;;;;;;5083400;28;20052;-69
2022/06/29 06:45:14;;;;;;;17.90;16.38;;;19.20;99.90;;;;;;5087148;28;20040;-68
2022/06/29 06:47:40;;;;;;;16.20;14.70;;;19.40;99.90;;;;;;5085376;28;20485;-69
2022/06/29 06:50:06;;;;;;;14.27;12.90;;;19.60;99.90;;;;;;5083999;28;20047;-68
2022/06/29 06:52:32;;;;;;;13.45;12.05;;;19.90;99.90;;;;;;5076530;28;20052;-68
2022/06/29 06:54:57;;;;;;;15.02;13.02;;;20.20;99.90;;;;;;5086428;28;20405;-67
2022/06/29 06:57:23;;;;;;;12.27;11.07;;;20.40;99.90;;;;;;5052497;28;20044;-67
2022/06/29 06:59:53;;;;;;;14.90;12.10;;;20.70;99.90;;;;;;5076260;28;20071;-67
2022/06/29 07:02:21;;;;;;;12.13;10.52;;;20.90;99.90;;;;;;5087377;28;20129;-67
2022/06/29 07:04:47;;;;;;;12.25;10.85;;;21.10;99.90;;;;;;5086071;28;20032;-67
2022/06/29 07:07:14;;;;;;;11.27;10.35;;;21.40;99.90;;;;;;5086630;28;20067;-67
2022/06/29 07:09:41;;;;;;;10.65;9.75;;;21.60;99.90;;;;;;5087260;28;20044;-66
2022/06/29 07:12:07;;;;;;;11.30;9.83;;;21.60;99.90;;;;;;5084217;28;20048;-67
2022/06/29 07:14:34;;;;;;;11.73;10.60;;;21.80;99.90;;;;;;5086605;28;20535;-66
2022/06/29 07:16:59;;;;;;;10.52;9.63;;;22.00;99.90;;;;;;5087348;28;20036;-67
2022/06/29 07:19:25;;;;;;;11.68;10.18;;;22.20;99.90;;;;;;5086964;28;20520;-66
2022/06/29 07:21:50;;;;;;;11.57;10.57;;;22.30;99.90;;;;;;5087107;28;20055;-67
2022/06/29 07:24:16;;;;;;;13.43;9.43;;;22.60;99.90;;;;;;5080413;28;20165;-67
2022/06/29 07:26:42;;;;;;;10.93;9.75;;;22.70;99.90;;;;;;5086845;28;20043;-66
2022/06/29 07:29:08;;;;;;;11.00;10.00;;;23.10;99.90;;;;;;5072152;28;20055;-67
2022/06/29 07:31:33;;;;;;;10.80;9.02;;;23.30;99.90;;;;;;5082193;28;20043;-67
2022/06/29 07:34:00;;;;;;;13.65;8.80;;;23.40;99.90;;;;;;5068799;28;20478;-67
2022/06/29 07:36:29;;;;;;;16.13;8.85;;;23.50;99.90;;;;;;5085591;28;20092;-67
2022/06/29 07:38:54;;;;;;;15.25;9.30;;;23.60;99.90;;;;;;5086510;28;20032;-67
2022/06/29 07:41:21;;;;;;;15.15;9.43;;;23.60;99.90;;;;;;5087355;28;20040;-67
2022/06/29 07:43:47;;;;;;;11.50;8.68;;;23.80;99.90;;;;;;5087096;28;20044;-67
2022/06/29 07:46:13;;;;;;;11.85;8.27;;;23.80;99.90;;;;;;5085541;28;20094;-67
2022/06/29 07:48:38;;;;;;;10.13;9.13;;;23.90;99.90;;;;;;5086733;28;20519;-67
2022/06/29 07:51:04;;;;;;;11.27;10.18;;;24.00;99.90;;;;;;5073071;28;20071;-67
2022/06/29 07:53:31;;;;;;;9.75;8.95;;;24.30;99.90;;;;;;5078142;28;20044;-66
2022/06/29 07:55:57;;;;;;;8.90;8.20;;;24.30;99.90;;;;;;5086617;28;20055;-66
2022/06/29 07:58:24;;;;;;;10.18;9.27;;;24.20;99.90;;;;;;5084005;28;20036;-67
2022/06/29 08:00:49;;;;;;;8.63;7.68;;;24.20;99.90;;;;;;5079071;28;20161;-67
2022/06/29 08:03:15;;;;;;;13.45;8.52;;;24.10;99.90;;;;;;5086590;28;20119;-67
2022/06/29 08:05:41;;;;;;;11.52;9.23;;;24.00;99.90;;;;;;5068068;28;20040;-67
2022/06/29 08:08:07;;;;;;;8.65;7.60;;;23.90;99.90;;;;;;5087549;28;20100;-67
2022/06/29 08:10:33;;;;;;;10.07;7.07;;;23.70;99.90;;;;;;5089818;28;20521;-67
2022/06/29 08:13:00;;;;;;;8.55;7.38;;;23.60;99.90;;;;;;5082353;28;20413;-68
2022/06/29 08:15:26;;;;;;;9.73;6.95;;;23.50;99.90;;;;;;5089184;28;20244;-67
2022/06/29 08:17:53;;;;;;;7.25;6.63;;;23.70;99.90;;;;;;5090301;28;20036;-67
2022/06/29 08:20:19;;;;;;;11.05;6.88;;;23.80;99.90;;;;;;5084766;28;20177;-67
2022/06/29 08:22:45;;;;;;;13.98;7.65;;;24.00;99.90;;;;;;5089168;28;20047;-67
2022/06/29 08:25:11;;;;;;;7.00;6.40;;;24.20;99.90;;;;;;5090344;28;20199;-67
2022/06/29 08:27:37;;;;;;;6.60;5.88;;;24.40;99.90;;;;;;5089936;28;20032;-67
2022/06/29 08:30:03;;;;;;;6.90;6.20;;;24.50;99.90;;;;;;5088850;28;20089;-67
2022/06/29 08:32:29;;;;;;;6.25;5.65;;;24.90;99.90;;;;;;5088495;28;20472;-67
2022/06/29 08:34:59;;;;;;;7.80;6.22;;;25.20;92.70;;;;;;5084111;28;20178;-67
2022/06/29 08:37:25;;;;;;;6.30;5.40;;;25.50;93.90;;;;;;5087988;28;20111;-69
2022/06/29 08:39:51;;;;;;;7.82;5.63;;;25.60;90.60;;;;;;5080229;28;20706;-68
2022/06/29 08:42:21;;;;;;;8.73;5.30;;;25.70;83.90;;;;;;5090502;28;20051;-69
2022/06/29 08:44:49;;;;;;;6.40;5.10;;;25.70;75.30;;;;;;5084700;28;20055;-68
2022/06/29 08:47:15;;;;;;;6.82;5.60;;;26.00;77.10;;;;;;5081010;28;20033;-68
2022/06/29 08:49:41;;;;;;;5.07;4.68;;;26.20;79.00;;;;;;5089840;28;20039;-68
2022/06/29 08:52:09;;;;;;;6.88;4.78;;;26.30;75.30;;;;;;5090210;28;20047;-68
2022/06/29 08:54:39;;;;;;;10.98;5.57;;;26.50;70.60;;;;;;5089721;28;20074;-68
2022/06/29 08:57:05;;;;;;;6.07;5.57;;;26.60;69.30;;;;;;5089756;28;20093;-68
2022/06/29 08:59:34;;;;;;;8.75;5.68;;;26.40;67.10;;;;;;5087062;28;20047;-68
2022/06/29 09:02:00;;;;;;;6.53;5.88;;;26.50;67.80;;;;;;5089555;28;20053;-68
2022/06/29 09:04:26;;;;;;;6.07;5.47;;;26.70;67.10;;;;;;5077135;28;20041;-68
2022/06/29 09:06:53;;;;;;;5.55;5.05;;;26.90;66.30;;;;;;5061590;28;20524;-68
2022/06/29 09:09:19;;;;;;;6.55;6.00;;;26.90;64.00;;;;;;5069352;28;20576;-68
2022/06/29 09:11:46;;;;;;;7.00;5.90;;;27.10;62.60;;;;;;5063610;28;20046;-68
2022/06/29 09:14:33;;;;;;;8.45;6.72;;;27.00;64.70;;;;;;5068799;28;20056;-68
2022/06/29 09:17:00;;;;;;;;;;;27.20;63.00;;;;;;5065522;28;20246;-68
2022/06/29 09:19:51;;;;;;;7.63;6.88;;;27.30;66.10;;;;;;5066690;28;19920;-68
2022/06/29 09:22:16;;;;;;;17.90;7.55;;;27.20;65.90;;;;;;5068366;28;20109;-69
2022/06/29 09:24:42;;;;;;;7.88;6.10;;;27.10;68.60;;;;;;5067968;28;20556;-68
2022/06/29 09:27:09;;;;;;;7.72;6.93;;;26.90;74.20;;;;;;5069211;28;20037;-68
2022/06/29 09:29:41;;;;;;;9.88;6.00;;;26.80;71.70;;;;;;5068421;28;20090;-68
2022/06/29 09:32:13;;;;;;;7.00;5.75;;;26.80;71.20;;;;;;5056944;28;20048;-68
2022/06/29 09:34:47;;;;;;;22.27;6.63;;;26.50;66.50;;;;;;5068314;28;20051;-68
2022/06/29 09:37:21;;;;;;;7.53;6.28;;;26.50;68.90;;;;;;5058245;28;20445;-68
2022/06/29 09:39:54;;;;;;;6.90;5.90;;;26.50;67.30;;;;;;5068510;28;20053;-68
2022/06/29 09:42:20;;;;;;;6.53;5.80;;;26.50;69.20;;;;;;5064039;28;20447;-67
2022/06/29 09:44:46;;;;;;;12.60;6.57;;;26.70;71.20;;;;;;5066765;28;20501;-67
2022/06/29 09:47:19;;;;;;;6.97;6.47;;;26.80;72.40;;;;;;5060427;28;20119;-68
2022/06/29 09:49:59;;;;;;;8.52;6.88;;;26.80;68.60;;;;;;5055887;28;20091;-67
2022/06/29 09:52:25;;;;;;;7.38;6.68;;;27.00;63.70;;;;;;5068300;28;20532;-67
2022/06/29 09:54:54;;;;;;;6.57;5.97;;;27.30;65.80;;;;;;5049053;28;20068;-67
2022/06/29 09:57:22;;;;;;;8.63;5.65;;;27.10;67.40;;;;;;5062776;28;20087;-67
2022/06/29 10:02:43;;;;;;;8.02;6.38;;;27.20;64.00;;;;;;5067928;28;20075;-68
2022/06/29 10:05:12;;;;;;;11.00;6.97;;;27.30;61.50;;;;;;5068155;28;20501;-67
2022/06/29 10:07:43;;;;;;;7.32;6.35;;;27.30;62.70;;;;;;5082451;28;20044;-67
2022/06/29 10:10:11;;;;;;;6.40;5.90;;;27.50;61.30;;;;;;5087603;28;20044;-67
2022/06/29 10:16:01;;;;;;;7.63;6.82;;;27.70;59.20;;;;;;5079896;28;20101;-68
2022/06/29 10:18:42;;;;;;;6.78;6.18;;;27.70;60.10;;;;;;5083290;28;20044;-67
2022/06/29 10:21:24;;;;;;;24.00;8.88;;;27.60;59.90;;;;;;5077686;28;20072;-67
2022/06/29 10:23:53;;;;;;;6.97;6.38;;;27.10;62.50;;;;;;5086808;28;20064;-67
2022/06/29 10:26:31;;;;;;;6.45;5.90;;;27.00;63.20;;;;;;5087983;28;20088;-67
2022/06/29 10:29:17;;;;;;;7.63;6.97;;;27.00;62.90;;;;;;5087694;28;20040;-67
2022/06/29 10:31:51;;;;;;;6.45;5.95;;;27.10;65.10;;;;;;5086474;28;20044;-67
2022/06/29 10:34:32;;;;;;;6.88;5.75;;;26.80;64.90;;;;;;5087770;28;20084;-67
2022/06/29 10:37:08;;;;;;;8.18;6.55;;;26.50;61.00;;;;;;5083318;28;20117;-67
2022/06/29 10:39:43;;;;;;;6.97;6.38;;;26.30;62.50;;;;;;5078196;28;20051;-67
2022/06/29 10:45:13;;;;;;;6.72;6.13;;;26.20;64.90;;;;;;5087722;28;20083;-67
2022/06/29 10:47:39;;;;;;;9.52;5.90;;;26.20;68.70;;;;;;5087390;28;20072;-67
2022/06/29 10:50:13;;;;;;;20.85;7.80;;;26.40;68.40;;;;;;5087712;28;20173;-68
2022/06/29 10:52:40;;;;;;;6.88;5.95;;;26.50;66.30;;;;;;5087504;28;20061;-67
2022/06/29 10:55:07;;;;;;;10.18;6.72;;;26.60;66.60;;;;;;5087245;28;20043;-67
2022/06/29 10:57:37;;;;;;;6.77;6.03;;;26.70;66.50;;;;;;5087303;28;20940;-67
2022/06/29 11:00:08;;;;;;;9.55;7.13;;;26.80;64.60;;;;;;5087424;28;20074;-67
2022/06/29 11:02:35;;;;;;;6.53;5.93;;;26.70;68.40;;;;;;5086699;28;20044;-67
2022/06/29 11:05:00;;;;;;;13.20;6.45;;;26.60;64.60;;;;;;5085602;28;20040;-68
2022/06/29 11:12:56;;;;;;;7.28;6.53;;;26.70;68.30;;;;;;5082158;28;20084;-67
2022/06/29 11:15:48;;;;;;;6.82;6.22;;;26.90;64.50;;;;;;5081704;28;20047;-67
2022/06/29 11:18:19;;;;;;;6.78;6.18;;;26.90;64.70;;;;;;5085002;28;20040;-66
2022/06/29 11:20:48;;;;;;;10.85;6.43;;;26.80;63.90;;;;;;5087236;28;20051;-66
2022/06/29 11:23:16;;;;;;;20.40;8.40;;;26.80;62.90;;;;;;5086470;28;20054;-67
2022/06/29 11:25:46;;;;;;;10.05;7.57;;;26.60;63.30;;;;;;5086719;28;20043;-66
2022/06/29 11:28:12;;;;;;;7.57;6.72;;;26.70;67.20;;;;;;5085014;28;20036;-67
2022/06/29 11:30:38;;;;;;;9.07;8.27;;;26.70;65.80;;;;;;5072507;28;20045;-67
2022/06/29 11:33:11;;;;;;;7.82;7.10;;;26.70;65.90;;;;;;5078124;28;20559;-67
2022/06/29 11:35:42;;;;;;;7.35;6.65;;;26.80;65.80;;;;;;5079510;28;20036;-67
2022/06/29 11:38:08;;;;;;;9.50;7.80;;;26.90;69.40;;;;;;5079508;28;20412;-66
2022/06/29 11:40:35;;;;;;;9.07;8.30;;;27.00;66.00;;;;;;5076547;28;20036;-66
2022/06/29 11:43:07;;;;;;;11.77;7.70;;;27.10;65.80;;;;;;5082240;28;20048;-67
2022/06/29 11:45:46;;;;;;;9.15;8.23;;;27.00;64.40;;;;;;5088888;28;20051;-67
2022/06/29 11:48:26;;;;;;;8.98;7.82;;;26.90;69.60;;;;;;5089236;28;20441;-66
2022/06/29 11:50:56;;;;;;;15.60;8.88;;;26.90;69.90;;;;;;5090694;28;20051;-67
2022/06/29 11:53:43;;;;;;;9.85;8.88;;;27.00;69.30;;;;;;5086643;28;20044;-66
2022/06/29 11:56:23;;;;;;;16.35;9.90;;;27.10;74.70;;;;;;5070034;28;20497;-67
2022/06/29 11:58:56;;;;;;;10.25;9.45;;;27.20;72.30;;;;;;5082758;28;20044;-67
2022/06/29 12:01:25;;;;;;;12.50;9.48;;;27.10;73.00;;;;;;5086959;28;20040;-67
2022/06/29 12:03:53;;;;;;;10.57;9.60;;;26.90;71.50;;;;;;5090046;28;20043;-67
2022/06/29 12:06:21;;;;;;;13.90;9.80;;;26.70;70.50;;;;;;5090658;28;20113;-67
2022/06/29 12:08:47;;;;;;;13.05;10.13;;;26.70;74.50;;;;;;5086151;28;20040;-67
2022/06/29 12:11:13;;;;;;;12.82;11.00;;;26.60;78.50;;;;;;5086239;28;20044;-67
2022/06/29 12:13:39;;;;;;;11.70;10.32;;;26.50;85.40;;;;;;5086567;28;20140;-67
2022/06/29 12:16:05;;;;;;;11.27;10.07;;;26.60;79.60;;;;;;5088536;28;20055;-67
2022/06/29 12:18:31;;;;;;;10.80;9.38;;;26.70;81.20;;;;;;5090350;28;20155;-67
2022/06/29 12:20:57;;;;;;;15.70;10.80;;;26.80;78.70;;;;;;5079081;28;20036;-67
2022/06/29 12:23:23;;;;;;;9.73;8.73;;;26.80;82.00;;;;;;5089790;28;20044;-67
2022/06/29 12:25:50;;;;;;;11.32;9.52;;;26.90;76.70;;;;;;5089578;28;20153;-67
2022/06/29 12:28:16;;;;;;;12.07;10.87;;;26.80;76.70;;;;;;5085614;28;20151;-67
2022/06/29 12:30:42;;;;;;;10.63;9.63;;;26.90;75.10;;;;;;5082801;28;20048;-68
2022/06/29 12:33:09;;;;;;;11.35;10.30;;;26.90;75.60;;;;;;5087248;28;20044;-67
2022/06/29 12:35:38;;;;;;;11.80;10.57;;;26.90;74.90;;;;;;5089700;28;20062;-67
2022/06/29 12:38:04;;;;;;;10.82;9.93;;;27.00;74.20;;;;;;5087057;28;20036;-67
2022/06/29 12:40:31;;;;;;;12.00;10.77;;;27.00;69.60;;;;;;5088325;28;20389;-67
2022/06/29 12:42:57;;;;;;;11.35;10.25;;;27.20;68.10;;;;;;5089220;28;20036;-67
2022/06/29 12:45:24;;;;;;;15.02;10.98;;;27.30;65.80;;;;;;5082881;28;20059;-66
2022/06/29 12:47:50;;;;;;;11.43;10.23;;;27.40;73.00;;;;;;5088147;28;20039;-67
2022/06/29 12:50:16;;;;;;;11.75;10.63;;;27.40;74.30;;;;;;5085527;28;20050;-67
2022/06/29 12:52:46;;;;;;;11.30;10.23;;;27.50;72.50;;;;;;5087829;28;20056;-67
2022/06/29 12:55:13;;;;;;;10.70;9.77;;;27.40;68.30;;;;;;5078486;28;20048;-67
2022/06/29 12:57:40;;;;;;;17.98;10.95;;;27.50;69.20;;;;;;5087216;28;20412;-67
2022/06/29 13:00:07;;;;;;;12.32;11.20;;;27.40;66.90;;;;;;5078244;28;20113;-66
2022/06/29 13:02:33;;;;;;;13.07;11.48;;;27.30;70.00;;;;;;5068514;28;20105;-67